sensor_id;sensor_type;location;lat;lon;timestamp;P1;durP1;ratioP1;P2;durP2;ratioP2
4873;SDS011;2451;49.970;9.068;2023-03-01T00:01:00;18.50;;;11.13;;
4873;SDS011;2451;49.970;9.068;2023-03-01T00:03:30;17.00;;;11.30;;
4873;SDS011;2451;49.970;9.068;2023-03-01T00:05:56;18.98;;;11.25;;
4873;SDS011;2451;49.970;9.068;2023-03-01T00:08:22;19.23;;;11.30;;
4873;SDS011;2451;49.970;9.068;2023-03-01T00:10:48;17.23;;;10.13;;
4873;SDS011;2451;49.970;9.068;2023-03-01T00:13:13;21.45;;;11.88;;
4873;SDS011;2451;49.970;9.068;2023-03-01T00:15:39;17.67;;;11.25;;
4873;SDS011;2451;49.970;9.068;2023-03-01T00:18:06;20.20;;;11.10;;
4873;SDS011;2451;49.970;9.068;2023-03-01T00:20:33;20.65;;;11.70;;
4873;SDS011;2451;49.970;9.068;2023-03-01T00:22:59;18.15;;;10.52;;
4873;SDS011;2451;49.970;9.068;2023-03-01T00:25:24;17.17;;;11.13;;
4873;SDS011;2451;49.970;9.068;2023-03-01T00:27:50;17.95;;;10.93;;
4873;SDS011;2451;49.970;9.068;2023-03-01T00:30:16;19.17;;;11.02;;
4873;SDS011;2451;49.970;9.068;2023-03-01T00:32:41;19.40;;;11.40;;
4873;SDS011;2451;49.970;9.068;2023-03-01T00:35:07;19.00;;;11.23;;
4873;SDS011;2451;49.970;9.068;2023-03-01T00:37:33;18.38;;;11.00;;
4873;SDS011;2451;49.970;9.068;2023-03-01T00:39:58;18.65;;;11.20;;
4873;SDS011;2451;49.970;9.068;2023-03-01T00:42:24;18.52;;;11.20;;
4873;SDS011;2451;49.970;9.068;2023-03-01T00:44:49;17.50;;;11.00;;
4873;SDS011;2451;49.970;9.068;2023-03-01T00:47:15;19.45;;;11.40;;
4873;SDS011;2451;49.970;9.068;2023-03-01T00:49:40;19.27;;;11.23;;
4873;SDS011;2451;49.970;9.068;2023-03-01T00:52:06;17.35;;;10.45;;
4873;SDS011;2451;49.970;9.068;2023-03-01T00:54:31;19.02;;;11.45;;
4873;SDS011;2451;49.970;9.068;2023-03-01T00:56:57;22.33;;;11.77;;
4873;SDS011;2451;49.970;9.068;2023-03-01T00:59:22;20.02;;;11.85;;
4873;SDS011;2451;49.970;9.068;2023-03-01T01:01:48;19.15;;;10.70;;
4873;SDS011;2451;49.970;9.068;2023-03-01T01:04:14;18.40;;;11.68;;
4873;SDS011;2451;49.970;9.068;2023-03-01T01:06:45;18.52;;;11.27;;
4873;SDS011;2451;49.970;9.068;2023-03-01T01:09:15;18.08;;;11.18;;
4873;SDS011;2451;49.970;9.068;2023-03-01T01:11:42;17.92;;;11.20;;
4873;SDS011;2451;49.970;9.068;2023-03-01T01:14:12;17.98;;;11.48;;
4873;SDS011;2451;49.970;9.068;2023-03-01T01:16:41;20.23;;;12.35;;
4873;SDS011;2451;49.970;9.068;2023-03-01T01:19:07;20.08;;;11.85;;
4873;SDS011;2451;49.970;9.068;2023-03-01T01:21:33;21.67;;;12.02;;
4873;SDS011;2451;49.970;9.068;2023-03-01T01:23:59;18.20;;;11.85;;
4873;SDS011;2451;49.970;9.068;2023-03-01T01:26:26;18.60;;;11.57;;
4873;SDS011;2451;49.970;9.068;2023-03-01T01:28:56;19.63;;;11.63;;
4873;SDS011;2451;49.970;9.068;2023-03-01T01:31:22;21.17;;;11.45;;
4873;SDS011;2451;49.970;9.068;2023-03-01T01:33:48;17.20;;;10.88;;
4873;SDS011;2451;49.970;9.068;2023-03-01T01:36:15;18.80;;;11.63;;
4873;SDS011;2451;49.970;9.068;2023-03-01T01:38:41;19.13;;;11.15;;
4873;SDS011;2451;49.970;9.068;2023-03-01T01:41:07;19.10;;;11.07;;
4873;SDS011;2451;49.970;9.068;2023-03-01T01:43:37;20.42;;;12.02;;
4873;SDS011;2451;49.970;9.068;2023-03-01T01:46:16;19.73;;;11.48;;
4873;SDS011;2451;49.970;9.068;2023-03-01T01:48:59;21.02;;;10.77;;
4873;SDS011;2451;49.970;9.068;2023-03-01T01:51:28;20.83;;;12.43;;
4873;SDS011;2451;49.970;9.068;2023-03-01T01:54:05;19.30;;;11.82;;
4873;SDS011;2451;49.970;9.068;2023-03-01T01:56:42;19.38;;;11.63;;
4873;SDS011;2451;49.970;9.068;2023-03-01T01:59:11;20.13;;;11.93;;
4873;SDS011;2451;49.970;9.068;2023-03-01T02:01:37;18.30;;;11.85;;
4873;SDS011;2451;49.970;9.068;2023-03-01T02:04:03;22.52;;;12.13;;
4873;SDS011;2451;49.970;9.068;2023-03-01T02:06:32;21.42;;;12.60;;
4873;SDS011;2451;49.970;9.068;2023-03-01T02:09:03;20.27;;;12.02;;
4873;SDS011;2451;49.970;9.068;2023-03-01T02:11:33;21.50;;;12.27;;
4873;SDS011;2451;49.970;9.068;2023-03-01T02:13:59;21.95;;;12.20;;
4873;SDS011;2451;49.970;9.068;2023-03-01T02:16:25;19.40;;;11.38;;
4873;SDS011;2451;49.970;9.068;2023-03-01T02:18:51;17.17;;;11.68;;
4873;SDS011;2451;49.970;9.068;2023-03-01T02:23:55;19.98;;;11.88;;
4873;SDS011;2451;49.970;9.068;2023-03-01T02:26:42;20.15;;;12.18;;
4873;SDS011;2451;49.970;9.068;2023-03-01T02:29:13;23.42;;;12.27;;
4873;SDS011;2451;49.970;9.068;2023-03-01T02:31:41;19.35;;;11.10;;
4873;SDS011;2451;49.970;9.068;2023-03-01T02:34:09;19.88;;;11.63;;
4873;SDS011;2451;49.970;9.068;2023-03-01T02:36:43;19.27;;;12.10;;
4873;SDS011;2451;49.970;9.068;2023-03-01T02:39:13;19.42;;;12.18;;
4873;SDS011;2451;49.970;9.068;2023-03-01T02:41:42;20.92;;;12.02;;
4873;SDS011;2451;49.970;9.068;2023-03-01T02:44:14;19.70;;;11.85;;
4873;SDS011;2451;49.970;9.068;2023-03-01T02:46:44;21.65;;;12.25;;
4873;SDS011;2451;49.970;9.068;2023-03-01T02:49:20;20.35;;;11.80;;
4873;SDS011;2451;49.970;9.068;2023-03-01T02:52:22;20.33;;;11.60;;
4873;SDS011;2451;49.970;9.068;2023-03-01T02:54:59;19.85;;;11.43;;
4873;SDS011;2451;49.970;9.068;2023-03-01T02:57:30;20.65;;;11.50;;
4873;SDS011;2451;49.970;9.068;2023-03-01T02:59:59;19.42;;;12.05;;
4873;SDS011;2451;49.970;9.068;2023-03-01T03:02:33;18.05;;;11.38;;
4873;SDS011;2451;49.970;9.068;2023-03-01T03:05:04;19.13;;;11.77;;
4873;SDS011;2451;49.970;9.068;2023-03-01T03:07:33;20.98;;;11.93;;
4873;SDS011;2451;49.970;9.068;2023-03-01T03:10:00;20.33;;;12.07;;
4873;SDS011;2451;49.970;9.068;2023-03-01T03:12:26;20.15;;;12.02;;
4873;SDS011;2451;49.970;9.068;2023-03-01T03:14:52;22.58;;;11.80;;
4873;SDS011;2451;49.970;9.068;2023-03-01T03:17:18;23.02;;;12.40;;
4873;SDS011;2451;49.970;9.068;2023-03-01T03:19:43;23.83;;;12.73;;
4873;SDS011;2451;49.970;9.068;2023-03-01T03:22:12;21.83;;;12.07;;
4873;SDS011;2451;49.970;9.068;2023-03-01T03:24:38;21.35;;;12.82;;
4873;SDS011;2451;49.970;9.068;2023-03-01T03:27:05;22.25;;;12.50;;
4873;SDS011;2451;49.970;9.068;2023-03-01T03:29:31;22.50;;;13.20;;
4873;SDS011;2451;49.970;9.068;2023-03-01T03:31:58;21.90;;;12.98;;
4873;SDS011;2451;49.970;9.068;2023-03-01T03:34:24;21.83;;;12.15;;
4873;SDS011;2451;49.970;9.068;2023-03-01T03:36:55;20.15;;;11.48;;
4873;SDS011;2451;49.970;9.068;2023-03-01T03:39:24;20.40;;;11.68;;
4873;SDS011;2451;49.970;9.068;2023-03-01T03:41:52;21.23;;;12.18;;
4873;SDS011;2451;49.970;9.068;2023-03-01T03:44:18;21.95;;;11.75;;
4873;SDS011;2451;49.970;9.068;2023-03-01T03:46:45;21.17;;;11.77;;
4873;SDS011;2451;49.970;9.068;2023-03-01T03:49:10;21.23;;;12.60;;
4873;SDS011;2451;49.970;9.068;2023-03-01T03:51:36;21.88;;;12.50;;
4873;SDS011;2451;49.970;9.068;2023-03-01T03:54:01;21.73;;;11.43;;
4873;SDS011;2451;49.970;9.068;2023-03-01T03:56:27;20.55;;;12.10;;
4873;SDS011;2451;49.970;9.068;2023-03-01T03:58:52;20.20;;;12.13;;
4873;SDS011;2451;49.970;9.068;2023-03-01T04:01:18;21.67;;;11.68;;
4873;SDS011;2451;49.970;9.068;2023-03-01T04:03:44;22.45;;;12.10;;
4873;SDS011;2451;49.970;9.068;2023-03-01T04:06:13;20.77;;;12.13;;
4873;SDS011;2451;49.970;9.068;2023-03-01T04:08:39;20.95;;;11.88;;
4873;SDS011;2451;49.970;9.068;2023-03-01T04:11:06;21.67;;;12.80;;
4873;SDS011;2451;49.970;9.068;2023-03-01T04:13:50;20.38;;;12.63;;
4873;SDS011;2451;49.970;9.068;2023-03-01T04:16:18;18.98;;;12.23;;
4873;SDS011;2451;49.970;9.068;2023-03-01T04:18:44;22.23;;;13.10;;
4873;SDS011;2451;49.970;9.068;2023-03-01T04:21:09;22.42;;;12.68;;
4873;SDS011;2451;49.970;9.068;2023-03-01T04:23:36;20.27;;;12.88;;
4873;SDS011;2451;49.970;9.068;2023-03-01T04:26:02;20.77;;;12.73;;
4873;SDS011;2451;49.970;9.068;2023-03-01T04:30:56;21.15;;;12.60;;
4873;SDS011;2451;49.970;9.068;2023-03-01T04:33:22;24.17;;;13.07;;
4873;SDS011;2451;49.970;9.068;2023-03-01T04:35:49;22.02;;;12.90;;
4873;SDS011;2451;49.970;9.068;2023-03-01T04:38:16;22.33;;;13.02;;
4873;SDS011;2451;49.970;9.068;2023-03-01T04:40:42;22.92;;;13.25;;
4873;SDS011;2451;49.970;9.068;2023-03-01T04:43:08;23.20;;;13.98;;
4873;SDS011;2451;49.970;9.068;2023-03-01T04:45:36;22.45;;;13.38;;
4873;SDS011;2451;49.970;9.068;2023-03-01T04:48:02;21.13;;;12.45;;
4873;SDS011;2451;49.970;9.068;2023-03-01T04:50:28;21.85;;;13.48;;
4873;SDS011;2451;49.970;9.068;2023-03-01T04:52:54;21.45;;;13.27;;
4873;SDS011;2451;49.970;9.068;2023-03-01T04:55:23;25.17;;;14.38;;
4873;SDS011;2451;49.970;9.068;2023-03-01T04:57:52;22.90;;;13.68;;
4873;SDS011;2451;49.970;9.068;2023-03-01T05:00:18;22.63;;;13.93;;
4873;SDS011;2451;49.970;9.068;2023-03-01T05:02:48;22.40;;;13.38;;
4873;SDS011;2451;49.970;9.068;2023-03-01T05:05:39;23.30;;;14.20;;
4873;SDS011;2451;49.970;9.068;2023-03-01T05:08:06;25.58;;;14.40;;
4873;SDS011;2451;49.970;9.068;2023-03-01T05:10:42;24.98;;;15.77;;
4873;SDS011;2451;49.970;9.068;2023-03-01T05:13:17;24.27;;;14.90;;
4873;SDS011;2451;49.970;9.068;2023-03-01T05:15:48;23.48;;;14.27;;
4873;SDS011;2451;49.970;9.068;2023-03-01T05:18:21;22.52;;;14.05;;
4873;SDS011;2451;49.970;9.068;2023-03-01T05:20:51;26.20;;;14.95;;
4873;SDS011;2451;49.970;9.068;2023-03-01T05:23:17;27.70;;;13.95;;
4873;SDS011;2451;49.970;9.068;2023-03-01T05:25:43;27.00;;;14.57;;
4873;SDS011;2451;49.970;9.068;2023-03-01T05:28:10;25.67;;;13.98;;
4873;SDS011;2451;49.970;9.068;2023-03-01T05:30:37;28.88;;;15.07;;
4873;SDS011;2451;49.970;9.068;2023-03-01T05:33:04;22.45;;;14.80;;
4873;SDS011;2451;49.970;9.068;2023-03-01T05:35:32;25.00;;;15.10;;
4873;SDS011;2451;49.970;9.068;2023-03-01T05:37:58;27.23;;;16.00;;
4873;SDS011;2451;49.970;9.068;2023-03-01T05:40:24;29.13;;;15.48;;
4873;SDS011;2451;49.970;9.068;2023-03-01T05:42:51;24.35;;;14.20;;
4873;SDS011;2451;49.970;9.068;2023-03-01T05:47:45;26.42;;;13.98;;
4873;SDS011;2451;49.970;9.068;2023-03-01T05:50:59;23.98;;;13.65;;
4873;SDS011;2451;49.970;9.068;2023-03-01T05:53:06;26.95;;;13.02;;
4873;SDS011;2451;49.970;9.068;2023-03-01T05:55:40;21.15;;;13.10;;
4873;SDS011;2451;49.970;9.068;2023-03-01T05:58:10;23.40;;;13.02;;
4873;SDS011;2451;49.970;9.068;2023-03-01T06:00:39;20.70;;;12.43;;
4873;SDS011;2451;49.970;9.068;2023-03-01T06:03:05;23.73;;;12.50;;
4873;SDS011;2451;49.970;9.068;2023-03-01T06:05:30;21.23;;;12.50;;
4873;SDS011;2451;49.970;9.068;2023-03-01T06:08:00;22.33;;;12.88;;
4873;SDS011;2451;49.970;9.068;2023-03-01T06:12:52;21.73;;;11.95;;
4873;SDS011;2451;49.970;9.068;2023-03-01T06:15:18;23.17;;;13.32;;
4873;SDS011;2451;49.970;9.068;2023-03-01T06:17:44;21.33;;;12.10;;
4873;SDS011;2451;49.970;9.068;2023-03-01T06:20:12;22.58;;;12.80;;
4873;SDS011;2451;49.970;9.068;2023-03-01T06:22:39;22.85;;;13.15;;
4873;SDS011;2451;49.970;9.068;2023-03-01T06:25:06;23.08;;;13.73;;
4873;SDS011;2451;49.970;9.068;2023-03-01T06:27:31;23.30;;;13.15;;
4873;SDS011;2451;49.970;9.068;2023-03-01T06:29:57;22.17;;;12.73;;
4873;SDS011;2451;49.970;9.068;2023-03-01T06:32:22;21.48;;;12.80;;
4873;SDS011;2451;49.970;9.068;2023-03-01T06:34:49;23.27;;;12.50;;
4873;SDS011;2451;49.970;9.068;2023-03-01T06:37:14;24.13;;;12.45;;
4873;SDS011;2451;49.970;9.068;2023-03-01T06:39:40;21.23;;;12.77;;
4873;SDS011;2451;49.970;9.068;2023-03-01T06:42:07;21.30;;;12.40;;
4873;SDS011;2451;49.970;9.068;2023-03-01T06:44:32;25.42;;;13.38;;
4873;SDS011;2451;49.970;9.068;2023-03-01T06:46:58;22.55;;;13.23;;
4873;SDS011;2451;49.970;9.068;2023-03-01T06:49:24;19.90;;;12.50;;
4873;SDS011;2451;49.970;9.068;2023-03-01T06:51:49;25.60;;;13.57;;
4873;SDS011;2451;49.970;9.068;2023-03-01T06:54:15;24.50;;;12.93;;
4873;SDS011;2451;49.970;9.068;2023-03-01T06:56:42;20.65;;;13.10;;
4873;SDS011;2451;49.970;9.068;2023-03-01T06:59:08;20.95;;;12.82;;
4873;SDS011;2451;49.970;9.068;2023-03-01T07:01:33;22.85;;;12.45;;
4873;SDS011;2451;49.970;9.068;2023-03-01T07:03:59;19.38;;;12.32;;
4873;SDS011;2451;49.970;9.068;2023-03-01T07:06:24;21.10;;;12.57;;
4873;SDS011;2451;49.970;9.068;2023-03-01T07:08:50;22.85;;;13.15;;
4873;SDS011;2451;49.970;9.068;2023-03-01T07:11:15;19.95;;;12.93;;
4873;SDS011;2451;49.970;9.068;2023-03-01T07:13:41;22.70;;;13.35;;
4873;SDS011;2451;49.970;9.068;2023-03-01T07:16:07;23.67;;;13.60;;
4873;SDS011;2451;49.970;9.068;2023-03-01T07:18:33;28.52;;;14.32;;
4873;SDS011;2451;49.970;9.068;2023-03-01T07:21:03;23.40;;;13.05;;
4873;SDS011;2451;49.970;9.068;2023-03-01T07:23:33;28.98;;;13.80;;
4873;SDS011;2451;49.970;9.068;2023-03-01T07:25:59;25.42;;;13.13;;
4873;SDS011;2451;49.970;9.068;2023-03-01T07:28:25;24.67;;;13.65;;
4873;SDS011;2451;49.970;9.068;2023-03-01T07:30:51;22.70;;;13.40;;
4873;SDS011;2451;49.970;9.068;2023-03-01T07:33:17;23.65;;;13.63;;
4873;SDS011;2451;49.970;9.068;2023-03-01T07:35:42;21.15;;;12.65;;
4873;SDS011;2451;49.970;9.068;2023-03-01T07:38:08;21.58;;;13.35;;
4873;SDS011;2451;49.970;9.068;2023-03-01T07:40:33;19.38;;;13.38;;
4873;SDS011;2451;49.970;9.068;2023-03-01T07:43:00;18.50;;;12.93;;
4873;SDS011;2451;49.970;9.068;2023-03-01T07:45:29;20.60;;;13.18;;
4873;SDS011;2451;49.970;9.068;2023-03-01T07:47:55;22.08;;;13.32;;
4873;SDS011;2451;49.970;9.068;2023-03-01T07:50:21;21.35;;;12.10;;
4873;SDS011;2451;49.970;9.068;2023-03-01T07:52:47;23.23;;;12.77;;
4873;SDS011;2451;49.970;9.068;2023-03-01T07:55:15;20.65;;;13.45;;
4873;SDS011;2451;49.970;9.068;2023-03-01T07:57:41;24.80;;;12.48;;
4873;SDS011;2451;49.970;9.068;2023-03-01T08:00:07;21.52;;;12.68;;
4873;SDS011;2451;49.970;9.068;2023-03-01T08:02:35;19.60;;;13.23;;
4873;SDS011;2451;49.970;9.068;2023-03-01T08:05:01;22.73;;;13.50;;
4873;SDS011;2451;49.970;9.068;2023-03-01T08:07:26;21.40;;;13.07;;
4873;SDS011;2451;49.970;9.068;2023-03-01T08:09:52;23.20;;;13.15;;
4873;SDS011;2451;49.970;9.068;2023-03-01T08:12:17;19.50;;;12.00;;
4873;SDS011;2451;49.970;9.068;2023-03-01T08:14:43;23.80;;;13.48;;
4873;SDS011;2451;49.970;9.068;2023-03-01T08:17:08;23.58;;;12.95;;
4873;SDS011;2451;49.970;9.068;2023-03-01T08:19:34;23.80;;;13.60;;
4873;SDS011;2451;49.970;9.068;2023-03-01T08:22:02;21.90;;;13.15;;
4873;SDS011;2451;49.970;9.068;2023-03-01T08:24:28;22.55;;;13.27;;
4873;SDS011;2451;49.970;9.068;2023-03-01T08:26:54;19.42;;;13.25;;
4873;SDS011;2451;49.970;9.068;2023-03-01T08:29:19;18.50;;;13.40;;
4873;SDS011;2451;49.970;9.068;2023-03-01T08:31:45;19.75;;;13.00;;
4873;SDS011;2451;49.970;9.068;2023-03-01T08:34:12;24.02;;;14.13;;
4873;SDS011;2451;49.970;9.068;2023-03-01T08:36:40;22.73;;;13.63;;
4873;SDS011;2451;49.970;9.068;2023-03-01T08:39:09;23.38;;;13.98;;
4873;SDS011;2451;49.970;9.068;2023-03-01T08:41:37;21.77;;;13.00;;
4873;SDS011;2451;49.970;9.068;2023-03-01T08:44:03;18.88;;;13.02;;
4873;SDS011;2451;49.970;9.068;2023-03-01T08:46:31;20.85;;;13.57;;
4873;SDS011;2451;49.970;9.068;2023-03-01T08:48:58;22.63;;;13.30;;
4873;SDS011;2451;49.970;9.068;2023-03-01T08:51:24;21.08;;;12.88;;
4873;SDS011;2451;49.970;9.068;2023-03-01T08:53:50;21.38;;;13.05;;
4873;SDS011;2451;49.970;9.068;2023-03-01T08:56:16;23.80;;;14.05;;
4873;SDS011;2451;49.970;9.068;2023-03-01T08:58:46;25.60;;;12.88;;
4873;SDS011;2451;49.970;9.068;2023-03-01T09:01:16;22.65;;;13.13;;
4873;SDS011;2451;49.970;9.068;2023-03-01T09:03:44;20.60;;;13.43;;
4873;SDS011;2451;49.970;9.068;2023-03-01T09:06:10;23.25;;;12.95;;
4873;SDS011;2451;49.970;9.068;2023-03-01T09:08:37;24.13;;;14.00;;
4873;SDS011;2451;49.970;9.068;2023-03-01T09:11:05;22.05;;;13.23;;
4873;SDS011;2451;49.970;9.068;2023-03-01T09:13:32;18.75;;;13.40;;
4873;SDS011;2451;49.970;9.068;2023-03-01T09:15:58;21.42;;;13.02;;
4873;SDS011;2451;49.970;9.068;2023-03-01T09:18:25;20.80;;;13.13;;
4873;SDS011;2451;49.970;9.068;2023-03-01T09:20:50;20.58;;;13.02;;
4873;SDS011;2451;49.970;9.068;2023-03-01T09:23:16;19.77;;;13.23;;
4873;SDS011;2451;49.970;9.068;2023-03-01T09:25:41;18.83;;;13.18;;
4873;SDS011;2451;49.970;9.068;2023-03-01T09:28:07;22.63;;;13.52;;
4873;SDS011;2451;49.970;9.068;2023-03-01T09:30:33;22.02;;;13.93;;
4873;SDS011;2451;49.970;9.068;2023-03-01T09:32:58;19.42;;;12.95;;
4873;SDS011;2451;49.970;9.068;2023-03-01T09:35:24;20.83;;;12.85;;
4873;SDS011;2451;49.970;9.068;2023-03-01T09:37:49;22.73;;;13.70;;
4873;SDS011;2451;49.970;9.068;2023-03-01T09:40:17;18.52;;;13.00;;
4873;SDS011;2451;49.970;9.068;2023-03-01T09:42:52;19.95;;;12.98;;
4873;SDS011;2451;49.970;9.068;2023-03-01T09:45:33;21.48;;;13.23;;
4873;SDS011;2451;49.970;9.068;2023-03-01T09:48:00;18.63;;;13.48;;
4873;SDS011;2451;49.970;9.068;2023-03-01T09:50:28;19.83;;;13.57;;
4873;SDS011;2451;49.970;9.068;2023-03-01T10:00:54;24.08;;;13.48;;
4873;SDS011;2451;49.970;9.068;2023-03-01T10:08:43;16.77;;;12.32;;
4873;SDS011;2451;49.970;9.068;2023-03-01T10:11:27;28.13;;;13.38;;
4873;SDS011;2451;49.970;9.068;2023-03-01T10:19:03;19.55;;;12.65;;
4873;SDS011;2451;49.970;9.068;2023-03-01T10:21:29;22.95;;;12.40;;
4873;SDS011;2451;49.970;9.068;2023-03-01T10:23:59;21.67;;;13.02;;
4873;SDS011;2451;49.970;9.068;2023-03-01T10:26:42;20.00;;;13.13;;
4873;SDS011;2451;49.970;9.068;2023-03-01T10:29:13;20.70;;;12.30;;
4873;SDS011;2451;49.970;9.068;2023-03-01T10:34:09;18.13;;;12.60;;
4873;SDS011;2451;49.970;9.068;2023-03-01T10:36:48;19.25;;;12.55;;
4873;SDS011;2451;49.970;9.068;2023-03-01T10:44:50;18.75;;;10.98;;
4873;SDS011;2451;49.970;9.068;2023-03-01T10:47:17;21.08;;;11.90;;
4873;SDS011;2451;49.970;9.068;2023-03-01T10:50:01;18.15;;;11.65;;
4873;SDS011;2451;49.970;9.068;2023-03-01T10:52:32;17.77;;;11.43;;
4873;SDS011;2451;49.970;9.068;2023-03-01T10:57:38;20.40;;;11.25;;
4873;SDS011;2451;49.970;9.068;2023-03-01T11:00:24;15.73;;;10.85;;
4873;SDS011;2451;49.970;9.068;2023-03-01T11:03:08;13.93;;;10.52;;
4873;SDS011;2451;49.970;9.068;2023-03-01T11:05:37;16.98;;;10.70;;
4873;SDS011;2451;49.970;9.068;2023-03-01T11:08:26;20.13;;;12.13;;
4873;SDS011;2451;49.970;9.068;2023-03-01T11:21:33;15.02;;;10.00;;
4873;SDS011;2451;49.970;9.068;2023-03-01T11:24:02;14.27;;;10.23;;
4873;SDS011;2451;49.970;9.068;2023-03-01T11:26:34;14.32;;;10.68;;
4873;SDS011;2451;49.970;9.068;2023-03-01T11:29:04;15.95;;;10.73;;
4873;SDS011;2451;49.970;9.068;2023-03-01T11:31:36;18.65;;;10.82;;
4873;SDS011;2451;49.970;9.068;2023-03-01T11:37:16;14.55;;;9.38;;
4873;SDS011;2451;49.970;9.068;2023-03-01T11:44:56;18.52;;;10.13;;
4873;SDS011;2451;49.970;9.068;2023-03-01T11:47:45;12.80;;;9.48;;
4873;SDS011;2451;49.970;9.068;2023-03-01T11:56:02;14.52;;;9.65;;
4873;SDS011;2451;49.970;9.068;2023-03-01T12:09:15;11.98;;;9.45;;
4873;SDS011;2451;49.970;9.068;2023-03-01T12:12:23;14.38;;;9.07;;
4873;SDS011;2451;49.970;9.068;2023-03-01T12:15:30;14.88;;;8.93;;
4873;SDS011;2451;49.970;9.068;2023-03-01T12:21:07;12.65;;;8.60;;
4873;SDS011;2451;49.970;9.068;2023-03-01T12:32:15;14.25;;;9.57;;
4873;SDS011;2451;49.970;9.068;2023-03-01T12:48:40;14.20;;;8.50;;
4873;SDS011;2451;49.970;9.068;2023-03-01T12:51:22;13.50;;;8.95;;
4873;SDS011;2451;49.970;9.068;2023-03-01T12:53:52;13.10;;;8.90;;
4873;SDS011;2451;49.970;9.068;2023-03-01T12:56:24;12.43;;;8.40;;
4873;SDS011;2451;49.970;9.068;2023-03-01T12:59:02;12.73;;;8.68;;
4873;SDS011;2451;49.970;9.068;2023-03-01T13:06:58;14.20;;;8.55;;
4873;SDS011;2451;49.970;9.068;2023-03-01T13:20:27;14.20;;;7.95;;
4873;SDS011;2451;49.970;9.068;2023-03-01T13:30:59;11.25;;;7.90;;
4873;SDS011;2451;49.970;9.068;2023-03-01T13:35:52;12.88;;;8.00;;
4873;SDS011;2451;49.970;9.068;2023-03-01T13:41:16;10.55;;;7.10;;
4873;SDS011;2451;49.970;9.068;2023-03-01T13:44:02;13.68;;;8.07;;
4873;SDS011;2451;49.970;9.068;2023-03-01T13:46:53;11.98;;;7.90;;
4873;SDS011;2451;49.970;9.068;2023-03-01T13:51:49;11.15;;;7.82;;
4873;SDS011;2451;49.970;9.068;2023-03-01T13:54:16;14.77;;;7.53;;
4873;SDS011;2451;49.970;9.068;2023-03-01T13:56:53;10.38;;;7.15;;
4873;SDS011;2451;49.970;9.068;2023-03-01T13:59:21;11.65;;;7.68;;
4873;SDS011;2451;49.970;9.068;2023-03-01T14:01:54;10.02;;;7.00;;
4873;SDS011;2451;49.970;9.068;2023-03-01T14:04:25;13.10;;;8.02;;
4873;SDS011;2451;49.970;9.068;2023-03-01T14:07:18;13.20;;;7.40;;
4873;SDS011;2451;49.970;9.068;2023-03-01T14:09:45;11.10;;;8.27;;
4873;SDS011;2451;49.970;9.068;2023-03-01T14:20:12;12.55;;;7.85;;
4873;SDS011;2451;49.970;9.068;2023-03-01T14:22:42;14.52;;;7.63;;
4873;SDS011;2451;49.970;9.068;2023-03-01T14:27:55;10.30;;;7.43;;
4873;SDS011;2451;49.970;9.068;2023-03-01T14:32:55;12.52;;;7.43;;
4873;SDS011;2451;49.970;9.068;2023-03-01T14:35:27;10.90;;;7.47;;
4873;SDS011;2451;49.970;9.068;2023-03-01T14:37:57;11.90;;;7.70;;
4873;SDS011;2451;49.970;9.068;2023-03-01T14:40:24;13.00;;;8.82;;
4873;SDS011;2451;49.970;9.068;2023-03-01T14:43:01;14.02;;;8.70;;
4873;SDS011;2451;49.970;9.068;2023-03-01T14:45:34;12.02;;;8.60;;
4873;SDS011;2451;49.970;9.068;2023-03-01T14:48:01;12.63;;;7.97;;
4873;SDS011;2451;49.970;9.068;2023-03-01T14:50:32;14.07;;;8.88;;
4873;SDS011;2451;49.970;9.068;2023-03-01T14:53:01;12.60;;;9.25;;
4873;SDS011;2451;49.970;9.068;2023-03-01T14:57:57;15.10;;;10.10;;
4873;SDS011;2451;49.970;9.068;2023-03-01T15:00:24;12.27;;;9.25;;
4873;SDS011;2451;49.970;9.068;2023-03-01T15:02:55;13.15;;;9.55;;
4873;SDS011;2451;49.970;9.068;2023-03-01T15:05:30;15.68;;;9.70;;
4873;SDS011;2451;49.970;9.068;2023-03-01T15:07:57;12.25;;;9.52;;
4873;SDS011;2451;49.970;9.068;2023-03-01T15:10:26;14.43;;;9.70;;
4873;SDS011;2451;49.970;9.068;2023-03-01T15:12:54;14.90;;;9.97;;
4873;SDS011;2451;49.970;9.068;2023-03-01T15:15:31;16.25;;;10.07;;
4873;SDS011;2451;49.970;9.068;2023-03-01T15:18:00;13.32;;;9.07;;
4873;SDS011;2451;49.970;9.068;2023-03-01T15:20:28;15.05;;;9.45;;
4873;SDS011;2451;49.970;9.068;2023-03-01T15:22:57;14.32;;;10.95;;
4873;SDS011;2451;49.970;9.068;2023-03-01T15:25:25;15.27;;;11.70;;
4873;SDS011;2451;49.970;9.068;2023-03-01T15:27:56;15.98;;;11.40;;
4873;SDS011;2451;49.970;9.068;2023-03-01T15:30:24;17.60;;;12.23;;
4873;SDS011;2451;49.970;9.068;2023-03-01T15:35:53;16.13;;;11.30;;
4873;SDS011;2451;49.970;9.068;2023-03-01T15:38:24;15.30;;;10.30;;
4873;SDS011;2451;49.970;9.068;2023-03-01T15:41:24;14.98;;;10.25;;
4873;SDS011;2451;49.970;9.068;2023-03-01T15:43:56;14.77;;;10.63;;
4873;SDS011;2451;49.970;9.068;2023-03-01T15:46:33;17.00;;;11.15;;
4873;SDS011;2451;49.970;9.068;2023-03-01T15:49:05;14.93;;;10.50;;
4873;SDS011;2451;49.970;9.068;2023-03-01T15:51:44;15.93;;;11.57;;
4873;SDS011;2451;49.970;9.068;2023-03-01T15:54:29;15.55;;;11.40;;
4873;SDS011;2451;49.970;9.068;2023-03-01T15:56:55;15.25;;;11.10;;
4873;SDS011;2451;49.970;9.068;2023-03-01T15:59:21;17.45;;;11.38;;
4873;SDS011;2451;49.970;9.068;2023-03-01T16:01:47;15.63;;;11.35;;
4873;SDS011;2451;49.970;9.068;2023-03-01T16:04:14;17.35;;;11.43;;
4873;SDS011;2451;49.970;9.068;2023-03-01T16:06:52;16.85;;;12.05;;
4873;SDS011;2451;49.970;9.068;2023-03-01T16:09:21;16.60;;;11.80;;
4873;SDS011;2451;49.970;9.068;2023-03-01T16:11:48;19.40;;;12.32;;
4873;SDS011;2451;49.970;9.068;2023-03-01T16:14:14;16.63;;;12.13;;
4873;SDS011;2451;49.970;9.068;2023-03-01T16:16:41;22.02;;;13.07;;
4873;SDS011;2451;49.970;9.068;2023-03-01T16:19:07;18.92;;;12.50;;
4873;SDS011;2451;49.970;9.068;2023-03-01T16:21:33;20.23;;;13.07;;
4873;SDS011;2451;49.970;9.068;2023-03-01T16:23:58;17.95;;;11.40;;
4873;SDS011;2451;49.970;9.068;2023-03-01T16:26:24;18.88;;;12.32;;
4873;SDS011;2451;49.970;9.068;2023-03-01T16:28:49;17.25;;;12.00;;
4873;SDS011;2451;49.970;9.068;2023-03-01T16:31:19;18.63;;;12.50;;
4873;SDS011;2451;49.970;9.068;2023-03-01T16:33:44;17.92;;;12.20;;
4873;SDS011;2451;49.970;9.068;2023-03-01T16:36:15;18.58;;;12.93;;
4873;SDS011;2451;49.970;9.068;2023-03-01T16:38:42;17.77;;;12.20;;
4873;SDS011;2451;49.970;9.068;2023-03-01T16:41:14;18.77;;;12.13;;
4873;SDS011;2451;49.970;9.068;2023-03-01T16:43:41;18.73;;;12.60;;
4873;SDS011;2451;49.970;9.068;2023-03-01T16:46:14;18.25;;;12.98;;
4873;SDS011;2451;49.970;9.068;2023-03-01T16:48:43;19.63;;;12.85;;
4873;SDS011;2451;49.970;9.068;2023-03-01T16:51:10;20.70;;;13.80;;
4873;SDS011;2451;49.970;9.068;2023-03-01T16:53:35;18.52;;;13.02;;
4873;SDS011;2451;49.970;9.068;2023-03-01T16:56:02;21.42;;;13.65;;
4873;SDS011;2451;49.970;9.068;2023-03-01T16:58:30;20.98;;;13.90;;
4873;SDS011;2451;49.970;9.068;2023-03-01T17:00:55;21.08;;;14.52;;
4873;SDS011;2451;49.970;9.068;2023-03-01T17:03:22;20.40;;;13.38;;
4873;SDS011;2451;49.970;9.068;2023-03-01T17:05:50;21.92;;;14.15;;
4873;SDS011;2451;49.970;9.068;2023-03-01T17:08:16;21.50;;;14.73;;
4873;SDS011;2451;49.970;9.068;2023-03-01T17:10:41;19.77;;;13.50;;
4873;SDS011;2451;49.970;9.068;2023-03-01T17:13:08;19.45;;;13.07;;
4873;SDS011;2451;49.970;9.068;2023-03-01T17:15:37;21.63;;;14.88;;
4873;SDS011;2451;49.970;9.068;2023-03-01T17:18:04;20.05;;;12.98;;
4873;SDS011;2451;49.970;9.068;2023-03-01T17:20:30;22.50;;;14.60;;
4873;SDS011;2451;49.970;9.068;2023-03-01T17:22:55;22.63;;;13.05;;
4873;SDS011;2451;49.970;9.068;2023-03-01T17:25:21;20.95;;;14.32;;
4873;SDS011;2451;49.970;9.068;2023-03-01T17:27:46;18.35;;;13.15;;
4873;SDS011;2451;49.970;9.068;2023-03-01T17:30:12;21.88;;;14.20;;
4873;SDS011;2451;49.970;9.068;2023-03-01T17:32:38;20.33;;;14.05;;